createdAt,value
2022-10-13T00:01:45.600Z,21.01
2022-10-13T00:05:42.957Z,21.01
2022-10-13T00:09:43.424Z,21.01
2022-10-13T00:13:43.438Z,21.01
2022-10-13T00:17:43.348Z,21.01
2022-10-13T00:21:43.437Z,21.01
2022-10-13T00:25:42.967Z,21.01
2022-10-13T00:29:49.314Z,21.01
2022-10-13T00:33:43.009Z,21.01
2022-10-13T00:37:42.994Z,21.01
2022-10-13T00:41:42.764Z,27.54
2022-10-13T00:45:43.400Z,27.54
2022-10-13T00:49:42.750Z,27.54
2022-10-13T00:53:43.184Z,27.54
2022-10-13T00:57:42.562Z,27.54
2022-10-13T01:01:47.763Z,27.54
2022-10-13T01:05:42.883Z,27.54
2022-10-13T01:09:43.325Z,27.54
2022-10-13T01:13:43.227Z,27.54
2022-10-13T01:17:42.593Z,27.54
2022-10-13T01:21:43.079Z,27.54
2022-10-13T01:25:42.507Z,27.54
2022-10-13T01:29:43.434Z,27.54
2022-10-13T01:33:43.222Z,27.54
2022-10-13T01:37:43.224Z,27.54
2022-10-13T01:41:44.661Z,27.54
2022-10-13T01:45:43.450Z,27.54
2022-10-13T01:49:43.365Z,27.54
2022-10-13T01:53:43.444Z,27.54
2022-10-13T01:57:43.132Z,27.54
2022-10-13T02:01:46.148Z,27.54
2022-10-13T02:05:43.059Z,27.54
2022-10-13T02:09:43.145Z,27.54
2022-10-13T02:13:43.376Z,27.54
2022-10-13T02:17:42.557Z,27.54
2022-10-13T02:21:42.983Z,27.54
2022-10-13T02:25:42.571Z,27.54
2022-10-13T02:29:43.584Z,27.54
2022-10-13T02:33:42.821Z,27.54
2022-10-13T02:37:43.226Z,27.54
2022-10-13T02:41:42.469Z,27.54
2022-10-13T02:45:42.559Z,27.54
2022-10-13T02:49:43.073Z,27.54
2022-10-13T02:53:43.299Z,27.54
2022-10-13T02:57:42.607Z,27.54
2022-10-13T03:01:45.869Z,27.54
2022-10-13T03:05:42.608Z,27.54
2022-10-13T03:09:42.848Z,27.54
2022-10-13T03:13:43.218Z,27.54
2022-10-13T03:17:47.315Z,27.54
2022-10-13T03:21:42.867Z,27.54
2022-10-13T03:25:43.535Z,27.54
2022-10-13T03:29:42.884Z,27.54
2022-10-13T03:33:42.965Z,27.54
2022-10-13T03:37:43.260Z,27.54
2022-10-13T03:41:42.641Z,27.54
2022-10-13T03:45:43.111Z,27.54
2022-10-13T03:49:42.917Z,27.54
2022-10-13T03:53:43.026Z,27.54
2022-10-13T03:57:42.568Z,27.54
2022-10-13T04:01:46.467Z,27.54
2022-10-13T04:05:42.388Z,27.54
2022-10-13T04:09:42.524Z,27.54
2022-10-13T04:13:49.672Z,27.54
2022-10-13T04:17:43.104Z,27.54
2022-10-13T04:21:43.479Z,27.54
2022-10-13T04:25:42.456Z,27.54
2022-10-13T04:29:43.285Z,27.54
2022-10-13T04:33:42.620Z,27.54
2022-10-13T04:37:45.085Z,27.54
2022-10-13T04:41:43.097Z,27.54
2022-10-13T04:45:42.390Z,27.54
2022-10-13T04:49:42.557Z,27.54
2022-10-13T04:53:43.244Z,27.54
2022-10-13T04:57:43.009Z,27.54
2022-10-13T05:01:51.443Z,27.54
2022-10-13T05:05:43.180Z,27.54
2022-10-13T05:09:43.437Z,27.54
2022-10-13T05:13:43.050Z,27.54
2022-10-13T05:17:46.999Z,27.54
2022-10-13T05:21:43.318Z,27.54
2022-10-13T05:25:45.357Z,27.54
2022-10-13T05:29:43.936Z,27.54
2022-10-13T05:33:50.021Z,27.54
2022-10-13T05:37:42.396Z,27.54
2022-10-13T05:41:42.881Z,27.54
2022-10-13T05:45:43.425Z,27.54
2022-10-13T05:49:42.425Z,27.54
2022-10-13T05:53:46.717Z,27.54
2022-10-13T05:57:43.031Z,27.54
2022-10-13T06:01:42.887Z,27.54
2022-10-13T06:05:42.471Z,27.54
2022-10-13T06:09:42.620Z,27.54
2022-10-13T06:13:42.990Z,27.54
2022-10-13T06:17:43.178Z,27.54
2022-10-13T06:21:43.048Z,27.54
2022-10-13T06:25:42.633Z,27.54
2022-10-13T06:29:47.522Z,27.54
2022-10-13T06:33:43.467Z,27.54
2022-10-13T06:37:49.775Z,27.54
2022-10-13T06:41:43.505Z,27.54
2022-10-13T06:45:42.500Z,27.54
2022-10-13T06:49:43.364Z,27.54
2022-10-13T06:53:42.745Z,27.54
2022-10-13T06:57:43.361Z,27.54
2022-10-13T07:01:52.537Z,27.54
2022-10-13T07:05:42.903Z,27.54
2022-10-13T07:09:43.492Z,27.54
2022-10-13T07:13:49.001Z,27.54
2022-10-13T07:17:43.945Z,27.54
2022-10-13T07:21:48.485Z,27.54
2022-10-13T07:25:42.578Z,27.54
2022-10-13T07:29:43.492Z,27.54
2022-10-13T07:33:43.489Z,27.54
2022-10-13T07:37:43.045Z,27.54
2022-10-13T07:41:43.961Z,27.54
2022-10-13T07:45:42.773Z,27.54
2022-10-13T07:49:47.413Z,51442.4
2022-10-13T07:53:42.617Z,39265
2022-10-13T07:57:42.556Z,39265
2022-10-13T08:01:45.823Z,39265
2022-10-13T08:05:42.680Z,39265
2022-10-13T08:09:42.503Z,39265
2022-10-13T08:13:43.578Z,39265
2022-10-13T08:17:47.657Z,39265
2022-10-13T08:22:49.855Z,39265
2022-10-13T08:25:42.686Z,39265
2022-10-13T08:30:07.976Z,39265
2022-10-13T08:33:42.902Z,39265
2022-10-13T08:37:43.599Z,39265
2022-10-13T08:41:43.259Z,39265
2022-10-13T08:47:11.452Z,39265
2022-10-13T08:49:43.586Z,39265
2022-10-13T08:53:42.662Z,39265
2022-10-13T08:57:43.138Z,49.48
2022-10-13T09:01:45.388Z,4027.32
2022-10-13T09:05:42.604Z,3509.75
2022-10-13T09:09:43.141Z,1767.1
2022-10-13T09:13:43.354Z,1290.79
2022-10-13T09:17:42.968Z,3.37
2022-10-13T09:21:43.285Z,3.37
2022-10-13T09:25:42.980Z,3.37
2022-10-13T09:29:43.828Z,3.37
2022-10-13T09:33:43.211Z,3.37
2022-10-13T09:37:42.549Z,3.37
2022-10-13T09:41:43.126Z,3.37
2022-10-13T09:45:46.592Z,3.37
2022-10-13T09:49:43.144Z,3.37
2022-10-13T09:53:42.958Z,3.37
2022-10-13T09:57:42.581Z,3.37
2022-10-13T10:01:45.911Z,3.37
2022-10-13T10:05:43.380Z,3.37
2022-10-13T10:10:10.537Z,3.37
2022-10-13T10:13:46.650Z,3.37
2022-10-13T10:17:43.820Z,3.37
2022-10-13T10:21:43.212Z,24.47
2022-10-13T10:25:42.839Z,24.47
2022-10-13T10:29:43.374Z,6.94
2022-10-13T10:33:43.121Z,1490.01
2022-10-13T10:37:45.341Z,1490.01
2022-10-13T10:41:42.807Z,3.04
2022-10-13T10:45:42.741Z,3.04
2022-10-13T10:49:43.094Z,3.04
2022-10-13T10:53:42.810Z,3.04
2022-10-13T10:57:44.009Z,3.04
2022-10-13T11:01:47.059Z,3.04
2022-10-13T11:05:50.549Z,3.04
2022-10-13T11:09:42.901Z,3.04
2022-10-13T11:13:43.751Z,3.04
2022-10-13T11:17:43.857Z,3.04
2022-10-13T11:21:43.817Z,3.04
2022-10-13T11:25:43.813Z,3.04
2022-10-13T11:29:43.651Z,3.04
2022-10-13T11:33:42.726Z,3.04
2022-10-13T11:37:43.939Z,3.04
2022-10-13T11:41:42.515Z,3.04
2022-10-13T11:45:43.266Z,7256.83
2022-10-13T11:49:43.000Z,7256.83
2022-10-13T11:53:42.776Z,7256.83
2022-10-13T11:57:47.238Z,7256.83
2022-10-13T12:01:49.953Z,7256.83
2022-10-13T12:05:43.103Z,7256.83
2022-10-13T12:09:43.174Z,7256.83
2022-10-13T12:13:42.946Z,7256.83
2022-10-13T12:17:51.226Z,7256.83
2022-10-13T12:21:43.012Z,7256.83
2022-10-13T12:25:43.305Z,7256.83
2022-10-13T12:29:48.738Z,7256.83
2022-10-13T12:33:43.408Z,7256.83
2022-10-13T12:37:43.214Z,7256.83
2022-10-13T12:41:42.956Z,7256.83
2022-10-13T12:45:47.994Z,7256.83
2022-10-13T12:49:43.316Z,7256.83
2022-10-13T12:53:43.040Z,7256.83
2022-10-13T12:57:42.637Z,7256.83
2022-10-13T13:01:45.922Z,7256.83
2022-10-13T13:05:42.522Z,7256.83
2022-10-13T13:09:42.789Z,7256.83
2022-10-13T13:13:42.718Z,7256.83
2022-10-13T13:18:19.506Z,7256.83
2022-10-13T13:21:43.123Z,7256.83
2022-10-13T13:26:09.645Z,7256.83
2022-10-13T13:29:43.236Z,7256.83
2022-10-13T13:33:43.133Z,7256.83
2022-10-13T13:37:43.907Z,7256.83
2022-10-13T13:41:49.043Z,7256.83
2022-10-13T13:45:42.682Z,7256.83
2022-10-13T13:49:42.963Z,7256.83
2022-10-13T13:53:42.647Z,17112.7
2022-10-13T13:57:44.716Z,17112.7
2022-10-13T14:01:47.553Z,8.25
2022-10-13T14:05:43.035Z,4.21
2022-10-13T14:09:43.406Z,4.21
2022-10-13T14:13:42.633Z,1125.58
2022-10-13T14:17:42.639Z,2.61
2022-10-13T14:21:43.480Z,2.61
2022-10-13T14:25:43.103Z,2.34
2022-10-13T14:29:48.557Z,781.6
2022-10-13T14:33:43.180Z,781.6
2022-10-13T14:37:46.664Z,752.08
2022-10-13T14:41:43.253Z,723.38
2022-10-13T14:45:42.739Z,723.38
2022-10-13T14:49:43.634Z,659.47
2022-10-13T14:53:43.342Z,1.69
2022-10-13T14:57:42.790Z,1.69
2022-10-13T15:01:45.608Z,1.67
2022-10-13T15:05:43.390Z,1.58
2022-10-13T15:10:15.401Z,567.31
2022-10-13T15:13:42.932Z,1.53
2022-10-13T15:17:42.605Z,559.41
2022-10-13T15:21:43.031Z,559.41
2022-10-13T15:25:42.646Z,1.49
2022-10-13T15:29:43.329Z,1.47
2022-10-13T15:33:43.816Z,1.47
2022-10-13T15:37:42.976Z,543.85
2022-10-13T15:41:43.018Z,1.45
2022-10-13T15:46:16.723Z,1.39
2022-10-13T15:49:43.254Z,513.63
2022-10-13T15:53:44.096Z,506.27
2022-10-13T15:57:43.217Z,506.27
2022-10-13T16:01:46.023Z,506.27
2022-10-13T16:05:45.266Z,1.33
2022-10-13T16:09:42.944Z,1.33
2022-10-13T16:13:46.136Z,484.61
2022-10-13T16:17:43.576Z,1.29
2022-10-13T16:21:42.623Z,1.29
2022-10-13T16:25:43.057Z,1.27
2022-10-13T16:29:43.249Z,463.6
2022-10-13T16:33:42.987Z,463.6
2022-10-13T16:37:43.578Z,1.23
2022-10-13T16:41:42.856Z,1.23
2022-10-13T16:46:11.785Z,1.23
2022-10-13T16:49:43.236Z,1.23
2022-10-13T16:53:43.456Z,1.23
2022-10-13T16:57:44.078Z,1.23
2022-10-13T17:01:48.610Z,1.23
2022-10-13T17:05:46.589Z,1.23
2022-10-13T17:09:43.300Z,1.23
2022-10-13T17:13:43.280Z,1.23
2022-10-13T17:17:44.146Z,1.23
2022-10-13T17:21:43.611Z,1.23
2022-10-13T17:25:43.870Z,1.23
2022-10-13T17:29:43.397Z,1.23
2022-10-13T17:33:49.363Z,1.23
2022-10-13T17:37:43.093Z,1.23
2022-10-13T17:41:44.861Z,1.23
2022-10-13T17:45:43.396Z,1.23
2022-10-13T17:49:44.999Z,1.23
2022-10-13T17:53:42.666Z,1.23
2022-10-13T17:57:43.709Z,1.23
2022-10-13T18:02:19.737Z,1.23
2022-10-13T18:05:43.058Z,1.23
2022-10-13T18:09:43.546Z,1.23
2022-10-13T18:13:43.086Z,1.23
2022-10-13T18:17:43.806Z,1.23
2022-10-13T18:21:43.182Z,1.23
2022-10-13T18:25:42.738Z,1.23
2022-10-13T18:29:43.960Z,1.23
2022-10-13T18:33:43.132Z,1.23
2022-10-13T18:37:43.274Z,1.23
2022-10-13T18:41:42.891Z,1.23
2022-10-13T18:45:43.287Z,1.23
2022-10-13T18:49:43.128Z,1.23
2022-10-13T18:53:43.397Z,1.23
2022-10-13T18:57:43.972Z,1.23
2022-10-13T19:01:46.145Z,1.23
2022-10-13T19:05:43.263Z,1.23
2022-10-13T19:09:42.565Z,1.23
2022-10-13T19:13:43.065Z,1.23
2022-10-13T19:17:47.465Z,1.23
2022-10-13T19:21:43.234Z,1.23
2022-10-13T19:25:42.614Z,1.23
2022-10-13T19:29:43.444Z,1.23
2022-10-13T19:33:44.708Z,1.23
2022-10-13T19:37:44.366Z,1.23
2022-10-13T19:41:49.694Z,1.23
2022-10-13T19:45:42.815Z,1.23
2022-10-13T19:49:43.406Z,1.23
2022-10-13T19:53:43.349Z,1.23
2022-10-13T19:57:43.690Z,1.23
2022-10-13T20:01:46.622Z,1.23
2022-10-13T20:05:47.987Z,1.23
2022-10-13T20:09:43.266Z,1.23
2022-10-13T20:13:43.381Z,1.23
2022-10-13T20:17:43.651Z,1.23
2022-10-13T20:21:42.741Z,1.23
2022-10-13T20:25:42.597Z,1.23
2022-10-13T20:29:50.322Z,1.23
2022-10-13T20:33:43.200Z,1.23
2022-10-13T20:37:46.803Z,1.23
2022-10-13T20:41:43.271Z,1.23
2022-10-13T20:45:43.419Z,1.23
2022-10-13T20:50:12.974Z,1.23
2022-10-13T20:53:42.567Z,1.23
2022-10-13T20:57:43.813Z,1.23
2022-10-13T21:01:46.022Z,1.23
2022-10-13T21:05:43.001Z,1.23
2022-10-13T21:09:43.300Z,1.23
2022-10-13T21:13:43.313Z,1.23
2022-10-13T21:17:43.505Z,1.23
2022-10-13T21:21:42.686Z,1.23
2022-10-13T21:25:42.527Z,1.23
2022-10-13T21:29:43.759Z,1.23
2022-10-13T21:33:46.929Z,1.23
2022-10-13T21:37:43.649Z,1.23
2022-10-13T21:41:49.909Z,1.23
2022-10-13T21:45:42.865Z,1.23
2022-10-13T21:49:42.589Z,1.23
2022-10-13T21:53:42.942Z,1.23
2022-10-13T21:57:43.364Z,1.23
2022-10-13T22:11:31.654Z,1.23
2022-10-13T22:13:43.522Z,1.23
2022-10-13T22:15:43.203Z,1.23
2022-10-13T22:17:43.790Z,1.23
2022-10-13T22:19:42.732Z,1.23
2022-10-13T22:21:42.834Z,1.23
2022-10-13T22:23:49.513Z,1.23
2022-10-13T22:25:43.158Z,1.23
2022-10-13T22:27:43.680Z,1.23
2022-10-13T22:29:45.401Z,1.23
2022-10-13T22:31:43.166Z,1.23
2022-10-13T22:33:43.253Z,1.23
2022-10-13T22:35:43.142Z,1.23
2022-10-13T22:37:43.904Z,1.23
2022-10-13T22:39:42.484Z,1.23
2022-10-13T22:41:43.509Z,1.23
2022-10-13T22:43:43.267Z,1.23
2022-10-13T22:45:43.129Z,1.23
2022-10-13T22:47:44.086Z,1.23
2022-10-13T22:49:48.285Z,1.23
2022-10-13T22:51:44.656Z,1.23
2022-10-13T22:53:45.959Z,1.23
2022-10-13T22:55:42.964Z,1.23
2022-10-13T22:57:43.248Z,1.23
2022-10-13T22:59:43.271Z,1.23
2022-10-13T23:01:46.111Z,1.23
2022-10-13T23:03:43.316Z,1.23
2022-10-13T23:05:42.802Z,1.23
2022-10-13T23:07:43.797Z,1.23
2022-10-13T23:09:43.310Z,1.23
2022-10-13T23:11:42.606Z,1.23
2022-10-13T23:13:43.312Z,1.23
2022-10-13T23:15:43.170Z,1.23
2022-10-13T23:17:43.818Z,1.23
2022-10-13T23:19:42.795Z,1.23
2022-10-13T23:21:42.964Z,1.23
2022-10-13T23:23:42.518Z,1.23
2022-10-13T23:25:43.280Z,1.23
2022-10-13T23:27:43.365Z,1.23
2022-10-13T23:29:43.917Z,1.23
2022-10-13T23:31:43.002Z,1.23
2022-10-13T23:33:48.760Z,1.23
2022-10-13T23:35:42.583Z,1.23
2022-10-13T23:37:43.217Z,1.23
2022-10-13T23:39:42.977Z,1.23
2022-10-13T23:41:43.346Z,1.23
2022-10-13T23:43:43.436Z,1.23
2022-10-13T23:45:43.160Z,1.23
2022-10-13T23:47:43.013Z,1.23
2022-10-13T23:49:43.153Z,1.23
2022-10-13T23:51:42.682Z,1.23
2022-10-13T23:53:43.121Z,1.23
2022-10-13T23:55:43.249Z,1.23
2022-10-13T23:57:43.273Z,1.23
2022-10-13T23:59:43.101Z,1.23
